createdAt,value
2018-12-30T00:00:47.333Z,998.92
2018-12-30T00:01:47.423Z,998.95
2018-12-30T00:02:47.513Z,998.90
2018-12-30T00:03:47.602Z,998.93
2018-12-30T00:04:47.691Z,998.96
2018-12-30T00:05:47.779Z,998.94
2018-12-30T00:06:47.869Z,998.82
2018-12-30T00:07:47.958Z,998.86
2018-12-30T00:08:48.046Z,998.91
2018-12-30T00:09:48.132Z,998.89
2018-12-30T00:10:48.222Z,998.86
2018-12-30T00:11:48.309Z,998.88
2018-12-30T00:12:48.395Z,998.87
2018-12-30T00:13:48.482Z,998.83
2018-12-30T00:14:48.570Z,998.81
2018-12-30T00:15:48.660Z,998.81
2018-12-30T00:16:48.750Z,998.81
2018-12-30T00:17:48.837Z,998.85
2018-12-30T00:18:48.921Z,998.88
2018-12-30T00:19:49.019Z,998.83
2018-12-30T00:20:49.110Z,998.88
2018-12-30T00:21:49.200Z,998.88
2018-12-30T00:22:49.290Z,998.87
2018-12-30T00:23:49.375Z,998.88
2018-12-30T00:24:49.462Z,998.92
2018-12-30T00:25:49.583Z,998.94
2018-12-30T00:26:49.672Z,999.00
2018-12-30T00:27:49.761Z,999.01
2018-12-30T00:28:49.850Z,999.01
2018-12-30T00:29:49.941Z,998.97
2018-12-30T00:30:50.029Z,999.11
2018-12-30T00:31:50.118Z,999.05
2018-12-30T00:32:50.212Z,999.07
2018-12-30T00:33:50.297Z,999.05
2018-12-30T00:34:50.385Z,999.07
2018-12-30T00:35:50.475Z,999.10
2018-12-30T00:36:50.562Z,999.10
2018-12-30T00:37:50.646Z,999.05
2018-12-30T00:38:50.744Z,999.01
2018-12-30T00:39:50.832Z,999.11
2018-12-30T00:40:50.922Z,999.07
2018-12-30T00:41:51.010Z,999.12
2018-12-30T00:42:51.100Z,999.16
2018-12-30T00:43:51.193Z,999.09
2018-12-30T00:44:51.284Z,999.14
2018-12-30T00:45:51.370Z,999.15
2018-12-30T00:46:51.461Z,999.18
2018-12-30T00:47:51.550Z,999.22
2018-12-30T00:48:51.641Z,999.26
2018-12-30T00:49:51.740Z,999.21
2018-12-30T00:50:51.828Z,999.16
2018-12-30T00:51:51.918Z,999.15
2018-12-30T00:52:52.010Z,999.20
2018-12-30T00:53:52.100Z,999.22
2018-12-30T00:54:52.190Z,999.18
2018-12-30T00:55:52.279Z,999.21
2018-12-30T00:56:52.367Z,999.31
2018-12-30T00:57:52.459Z,999.30
2018-12-30T00:58:52.547Z,999.25
2018-12-30T00:59:52.636Z,999.22
2018-12-30T01:00:52.725Z,999.25
2018-12-30T01:01:52.817Z,999.25
2018-12-30T01:02:52.908Z,999.23
2018-12-30T01:03:52.997Z,999.30
2018-12-30T01:04:53.086Z,999.28
2018-12-30T01:05:53.175Z,999.26
2018-12-30T01:06:53.262Z,999.20
2018-12-30T01:07:53.353Z,999.29
2018-12-30T01:08:53.444Z,999.23
2018-12-30T01:09:53.533Z,999.16
2018-12-30T01:10:53.622Z,999.28
2018-12-30T01:11:53.716Z,999.33
2018-12-30T01:12:53.800Z,999.33
2018-12-30T01:13:53.891Z,999.27
2018-12-30T01:14:53.982Z,999.30
2018-12-30T01:15:54.069Z,999.35
2018-12-30T01:16:54.159Z,999.34
2018-12-30T01:17:54.249Z,999.35
2018-12-30T01:18:54.341Z,999.36
2018-12-30T01:19:54.431Z,999.41
2018-12-30T01:20:54.522Z,999.35
2018-12-30T01:21:54.611Z,999.39
2018-12-30T01:22:54.706Z,999.37
2018-12-30T01:23:54.787Z,999.40
2018-12-30T01:24:54.887Z,999.40
2018-12-30T01:25:54.973Z,999.39
2018-12-30T01:26:55.062Z,999.39
2018-12-30T01:27:55.154Z,999.39
2018-12-30T01:28:55.241Z,999.39
2018-12-30T01:29:55.327Z,999.42
2018-12-30T01:30:55.416Z,999.43
2018-12-30T01:31:55.510Z,999.42
2018-12-30T01:32:55.593Z,999.47
2018-12-30T01:33:55.706Z,999.50
2018-12-30T01:34:55.789Z,999.51
2018-12-30T01:35:55.880Z,999.45
2018-12-30T01:36:56.034Z,999.45
2018-12-30T01:37:56.059Z,999.47
2018-12-30T01:38:56.147Z,999.47
2018-12-30T01:39:56.235Z,999.45
2018-12-30T01:40:56.327Z,999.46
2018-12-30T01:41:56.413Z,999.52
2018-12-30T01:42:56.503Z,999.52
2018-12-30T01:43:56.592Z,999.57
2018-12-30T01:44:56.679Z,999.51
2018-12-30T01:45:56.771Z,999.63
2018-12-30T01:46:56.853Z,999.61
2018-12-30T01:47:56.941Z,999.67
2018-12-30T01:48:57.031Z,999.61
2018-12-30T01:49:57.121Z,999.62
2018-12-30T01:50:57.211Z,999.69
2018-12-30T01:51:57.299Z,999.68
2018-12-30T01:52:57.382Z,999.70
2018-12-30T01:53:57.474Z,999.68
2018-12-30T01:54:57.556Z,999.73
2018-12-30T01:55:57.644Z,999.69
2018-12-30T01:56:57.734Z,999.73
2018-12-30T01:57:57.827Z,999.71
2018-12-30T01:58:57.913Z,999.78
2018-12-30T01:59:58.002Z,999.67
2018-12-30T02:00:58.091Z,999.84
2018-12-30T02:01:58.178Z,999.81
2018-12-30T02:02:58.268Z,999.75
2018-12-30T02:03:58.357Z,999.83
2018-12-30T02:04:58.464Z,999.77
2018-12-30T02:05:58.554Z,999.78
2018-12-30T02:06:58.645Z,999.88
2018-12-30T02:07:58.736Z,999.84
2018-12-30T02:08:58.824Z,999.89
2018-12-30T02:09:58.923Z,999.84
2018-12-30T02:10:59.033Z,999.89
2018-12-30T02:11:59.116Z,999.93
2018-12-30T02:12:59.216Z,1000.00
2018-12-30T02:13:59.305Z,1000.05
2018-12-30T02:14:59.390Z,1000.06
2018-12-30T02:15:59.480Z,1000.03
2018-12-30T02:16:59.564Z,1000.05
2018-12-30T02:17:59.657Z,1000.07
2018-12-30T02:18:59.834Z,1000.22
2018-12-30T02:19:59.836Z,1000.11
2018-12-30T02:20:59.926Z,1000.12
2018-12-30T02:22:00.015Z,1000.14
2018-12-30T02:23:00.104Z,1000.18
2018-12-30T02:24:00.200Z,999.97
2018-12-30T02:25:00.334Z,1000.20
2018-12-30T02:26:00.378Z,1000.13
2018-12-30T02:27:00.468Z,1000.05
2018-12-30T02:28:00.556Z,1000.16
2018-12-30T02:29:00.645Z,1000.23
2018-12-30T02:30:00.735Z,1000.25
2018-12-30T02:31:00.821Z,1000.08
2018-12-30T02:32:00.910Z,1000.11
2018-12-30T02:33:00.998Z,1000.19
2018-12-30T02:34:01.087Z,1000.30
2018-12-30T02:35:01.275Z,1000.28
2018-12-30T02:36:01.268Z,1000.29
2018-12-30T02:37:01.356Z,1000.30
2018-12-30T02:38:01.441Z,1000.38
2018-12-30T02:39:01.526Z,1000.27
2018-12-30T02:40:01.615Z,1000.29
2018-12-30T02:41:01.704Z,1000.34
2018-12-30T02:42:01.793Z,1000.30
2018-12-30T02:43:01.874Z,1000.31
2018-12-30T02:44:01.975Z,1000.41
2018-12-30T02:45:02.065Z,1000.33
2018-12-30T02:46:02.155Z,1000.36
2018-12-30T02:47:02.244Z,1000.43
2018-12-30T02:48:02.333Z,1000.42
2018-12-30T02:49:02.421Z,1000.32
2018-12-30T02:50:02.508Z,1000.39
2018-12-30T02:51:02.601Z,1000.40
2018-12-30T02:52:02.693Z,1000.43
2018-12-30T02:53:02.790Z,1000.52
2018-12-30T02:54:02.858Z,1000.51
2018-12-30T02:55:02.961Z,1000.52
2018-12-30T02:56:03.052Z,1000.48
2018-12-30T02:57:03.136Z,1000.50
2018-12-30T02:58:03.225Z,1000.62
2018-12-30T02:59:03.313Z,1000.52
2018-12-30T03:00:03.405Z,1000.55
2018-12-30T03:01:03.492Z,1000.56
2018-12-30T03:02:03.585Z,1000.58
2018-12-30T03:03:03.675Z,1000.67
2018-12-30T03:04:03.764Z,1000.53
2018-12-30T03:05:03.855Z,1000.53
2018-12-30T03:06:03.941Z,1000.61
2018-12-30T03:07:04.032Z,1000.59
2018-12-30T03:08:04.114Z,1000.50
2018-12-30T03:09:04.214Z,1000.54
2018-12-30T03:10:04.306Z,1000.56
2018-12-30T03:11:04.394Z,1000.53
2018-12-30T03:12:04.497Z,1000.58
2018-12-30T03:13:04.565Z,1000.53
2018-12-30T03:14:04.654Z,1000.54
2018-12-30T03:15:04.743Z,1000.58
2018-12-30T03:16:04.845Z,1000.57
2018-12-30T03:17:04.923Z,1000.64
2018-12-30T03:18:05.014Z,1000.59
2018-12-30T03:19:05.102Z,1000.66
2018-12-30T03:20:05.200Z,1000.62
2018-12-30T03:21:05.289Z,1000.59
2018-12-30T03:22:05.388Z,1000.59
2018-12-30T03:23:05.478Z,1000.71
2018-12-30T03:24:05.558Z,1000.73
2018-12-30T03:25:05.649Z,1000.67
2018-12-30T03:26:05.734Z,1000.75
2018-12-30T03:27:05.823Z,1000.63
2018-12-30T03:28:07.168Z,1000.86
2018-12-30T03:29:06.010Z,1000.81
2018-12-30T03:30:06.093Z,1000.64
2018-12-30T03:31:06.185Z,1000.70
2018-12-30T03:32:06.318Z,1000.83
2018-12-30T03:33:06.394Z,1000.79
2018-12-30T03:34:06.481Z,1000.77
2018-12-30T03:35:06.570Z,1000.81
2018-12-30T03:36:06.659Z,1000.94
2018-12-30T03:37:06.745Z,1000.82
2018-12-30T03:38:06.835Z,1000.96
2018-12-30T03:39:06.933Z,1000.81
2018-12-30T03:40:07.024Z,1000.72
2018-12-30T03:41:07.108Z,1000.89
2018-12-30T03:42:07.200Z,1000.77
2018-12-30T03:43:07.287Z,1000.88
2018-12-30T03:44:07.378Z,1000.90
2018-12-30T03:45:07.464Z,1000.80
2018-12-30T03:46:07.555Z,1000.91
2018-12-30T03:47:07.644Z,1000.92
2018-12-30T03:48:07.734Z,1000.92
2018-12-30T03:49:07.824Z,1000.94
2018-12-30T03:50:07.915Z,1001.00
2018-12-30T03:51:08.010Z,1000.96
2018-12-30T03:52:08.864Z,1001.01
2018-12-30T03:53:08.171Z,1001.03
2018-12-30T03:54:08.260Z,1001.09
2018-12-30T03:55:08.345Z,1000.98
2018-12-30T03:56:08.436Z,1001.15
2018-12-30T03:57:08.524Z,1001.11
2018-12-30T03:58:08.617Z,1001.08
2018-12-30T03:59:08.704Z,1001.12
2018-12-30T04:00:08.798Z,1001.05
2018-12-30T04:01:08.885Z,1001.12
2018-12-30T04:02:08.974Z,1001.18
2018-12-30T04:03:09.061Z,1001.23
2018-12-30T04:04:09.173Z,1001.27
2018-12-30T04:05:09.269Z,1001.26
2018-12-30T04:06:09.354Z,1001.31
2018-12-30T04:07:09.442Z,1001.27
2018-12-30T04:08:09.532Z,1001.31
2018-12-30T04:09:09.621Z,1001.28
2018-12-30T04:10:09.711Z,1001.34
2018-12-30T04:11:09.802Z,1001.25
2018-12-30T04:12:09.888Z,1001.40
2018-12-30T04:13:09.976Z,1001.44
2018-12-30T04:14:10.061Z,1001.37
2018-12-30T04:15:10.154Z,1001.49
2018-12-30T04:16:10.252Z,1001.48
2018-12-30T04:17:10.331Z,1001.50
2018-12-30T04:18:10.419Z,1001.54
2018-12-30T04:19:10.508Z,1001.57
2018-12-30T04:20:10.602Z,1001.43
2018-12-30T04:21:10.686Z,1001.58
2018-12-30T04:22:16.772Z,1001.63
2018-12-30T04:23:10.863Z,1001.65
2018-12-30T04:24:10.957Z,1001.66
2018-12-30T04:25:11.050Z,1001.68
2018-12-30T04:26:11.142Z,1001.76
2018-12-30T04:27:11.230Z,1001.56
2018-12-30T04:28:11.316Z,1001.74
2018-12-30T04:29:11.417Z,1001.84
2018-12-30T04:30:11.513Z,1001.79
2018-12-30T04:31:11.603Z,1001.88
2018-12-30T04:32:11.689Z,1001.84
2018-12-30T04:33:11.778Z,1001.88
2018-12-30T04:34:11.866Z,1001.86
2018-12-30T04:35:11.954Z,1001.92
2018-12-30T04:36:12.043Z,1002.05
2018-12-30T04:37:12.136Z,1001.93
2018-12-30T04:38:12.219Z,1001.99
2018-12-30T04:39:12.310Z,1002.05
2018-12-30T04:40:12.404Z,1002.01
2018-12-30T04:41:12.487Z,1002.05
2018-12-30T04:42:12.579Z,1002.04
2018-12-30T04:43:12.662Z,1001.95
2018-12-30T04:44:12.750Z,1001.98
2018-12-30T04:45:12.849Z,1001.96
2018-12-30T04:46:12.931Z,1002.01
2018-12-30T04:47:13.021Z,1001.99
2018-12-30T04:48:13.110Z,1002.03
2018-12-30T04:49:13.197Z,1002.05
2018-12-30T04:50:13.288Z,1002.07
2018-12-30T04:51:13.379Z,1002.14
2018-12-30T04:52:13.468Z,1002.06
2018-12-30T04:53:13.555Z,1002.06
2018-12-30T04:54:13.641Z,1001.99
2018-12-30T04:55:13.738Z,1002.04
2018-12-30T04:56:13.820Z,1002.07
2018-12-30T04:57:13.904Z,1002.09
2018-12-30T04:58:13.999Z,1002.01
2018-12-30T04:59:14.087Z,1002.05
2018-12-30T05:00:14.177Z,1002.07
2018-12-30T05:01:14.264Z,1002.26
2018-12-30T05:02:14.354Z,1002.07
2018-12-30T05:03:14.442Z,1002.08
2018-12-30T05:04:14.529Z,1002.07
2018-12-30T05:05:14.621Z,1002.10
2018-12-30T05:06:14.713Z,1002.15
2018-12-30T05:07:14.800Z,1002.24
2018-12-30T05:08:14.889Z,1002.21
2018-12-30T05:09:14.974Z,1002.21
2018-12-30T05:10:15.066Z,1002.28
2018-12-30T05:11:15.167Z,1002.28
2018-12-30T05:12:15.258Z,1002.28
2018-12-30T05:13:15.344Z,1002.36
2018-12-30T05:14:15.480Z,1002.31
2018-12-30T05:15:15.521Z,1002.33
2018-12-30T05:16:15.641Z,1002.33
2018-12-30T05:17:15.698Z,1002.37
2018-12-30T05:18:15.790Z,1002.28
2018-12-30T05:19:15.881Z,1002.38
2018-12-30T05:20:15.974Z,1002.39
2018-12-30T05:21:16.052Z,1002.44
2018-12-30T05:22:16.141Z,1002.49
2018-12-30T05:23:16.230Z,1002.48
2018-12-30T05:24:16.317Z,1002.53
2018-12-30T05:25:16.401Z,1002.47
2018-12-30T05:26:16.491Z,1002.58
2018-12-30T05:27:16.580Z,1002.62
2018-12-30T05:28:16.667Z,1002.65
2018-12-30T05:29:16.754Z,1002.65
2018-12-30T05:30:16.831Z,1002.60
2018-12-30T05:31:16.922Z,1002.67
2018-12-30T05:32:17.005Z,1002.63
2018-12-30T05:33:17.099Z,1002.66
2018-12-30T05:34:17.189Z,1002.65
2018-12-30T05:35:17.281Z,1002.70
2018-12-30T05:36:17.370Z,1002.69
2018-12-30T05:37:17.460Z,1002.78
2018-12-30T05:38:17.546Z,1002.75
2018-12-30T05:39:17.638Z,1002.88
2018-12-30T05:40:17.728Z,1002.89
2018-12-30T05:41:17.820Z,1002.88
2018-12-30T05:42:17.918Z,1002.83
2018-12-30T05:43:18.007Z,1002.90
2018-12-30T05:44:18.097Z,1002.92
2018-12-30T05:45:18.196Z,1003.00
2018-12-30T05:46:18.277Z,1003.05
2018-12-30T05:47:18.367Z,1003.05
2018-12-30T05:48:18.456Z,1003.15
2018-12-30T05:49:18.543Z,1003.18
2018-12-30T05:50:18.631Z,1003.12
2018-12-30T05:51:18.721Z,1003.22
2018-12-30T05:52:18.811Z,1003.21
2018-12-30T05:53:18.898Z,1003.17
2018-12-30T05:54:18.989Z,1003.26
2018-12-30T05:55:19.068Z,1003.43
2018-12-30T05:56:19.157Z,1003.29
2018-12-30T05:57:19.246Z,1003.33
2018-12-30T05:58:19.338Z,1003.44
2018-12-30T05:59:19.423Z,1003.41
2018-12-30T06:00:19.514Z,1003.41
2018-12-30T06:01:19.605Z,1003.54
2018-12-30T06:02:19.691Z,1003.54
2018-12-30T06:03:19.783Z,1003.58
2018-12-30T06:04:19.872Z,1003.55
2018-12-30T06:05:19.959Z,1003.60
2018-12-30T06:06:20.049Z,1003.68
2018-12-30T06:07:20.161Z,1003.68
2018-12-30T06:08:20.251Z,1003.65
2018-12-30T06:09:20.342Z,1003.67
2018-12-30T06:10:20.425Z,1003.74
2018-12-30T06:11:20.596Z,1003.76
2018-12-30T06:12:20.612Z,1003.82
2018-12-30T06:13:20.700Z,1003.84
2018-12-30T06:14:20.790Z,1003.73
2018-12-30T06:15:20.877Z,1003.84
2018-12-30T06:16:20.969Z,1003.95
2018-12-30T06:17:21.058Z,1003.90
2018-12-30T06:18:21.147Z,1003.98
2018-12-30T06:19:21.237Z,1004.00
2018-12-30T06:20:21.327Z,1003.99
2018-12-30T06:21:21.417Z,1003.92
2018-12-30T06:22:21.508Z,1004.02
2018-12-30T06:23:21.597Z,1004.08
2018-12-30T06:24:21.685Z,1004.08
2018-12-30T06:25:21.775Z,1004.04
2018-12-30T06:26:21.869Z,1004.12
2018-12-30T06:27:21.956Z,1004.14
2018-12-30T06:28:22.046Z,1004.08
2018-12-30T06:29:22.136Z,1004.05
2018-12-30T06:30:22.223Z,1004.20
2018-12-30T06:31:22.310Z,1004.20
2018-12-30T06:32:22.404Z,1004.21
2018-12-30T06:33:22.495Z,1004.13
2018-12-30T06:34:22.585Z,1004.21
2018-12-30T06:35:22.674Z,1004.19
2018-12-30T06:36:22.763Z,1004.24
2018-12-30T06:37:22.852Z,1004.22
2018-12-30T06:38:22.943Z,1004.25
2018-12-30T06:39:23.032Z,1004.29
2018-12-30T06:40:23.123Z,1004.35
2018-12-30T06:41:23.209Z,1004.27
2018-12-30T06:42:23.317Z,1004.36
2018-12-30T06:43:23.392Z,1004.35
2018-12-30T06:44:23.481Z,1004.36
2018-12-30T06:45:23.571Z,1004.39
2018-12-30T06:46:23.658Z,1004.40
2018-12-30T06:47:23.750Z,1004.34
2018-12-30T06:48:23.836Z,1004.39
2018-12-30T06:49:23.927Z,1004.38
2018-12-30T06:50:24.090Z,1004.35
2018-12-30T06:51:24.103Z,1004.49
2018-12-30T06:52:24.194Z,1004.52
2018-12-30T06:53:24.283Z,1004.48
2018-12-30T06:54:24.375Z,1004.55
2018-12-30T06:55:24.466Z,1004.47
2018-12-30T06:56:24.552Z,1004.55
2018-12-30T06:57:24.646Z,1004.56
2018-12-30T06:58:24.735Z,1004.52
2018-12-30T06:59:24.826Z,1004.59
2018-12-30T07:00:24.916Z,1004.58
2018-12-30T07:01:25.007Z,1004.54
2018-12-30T07:02:25.091Z,1004.57
2018-12-30T07:03:25.190Z,1004.67
2018-12-30T07:04:25.274Z,1004.64
2018-12-30T07:05:25.363Z,1004.64
2018-12-30T07:06:25.450Z,1004.58
2018-12-30T07:07:25.542Z,1004.66
2018-12-30T07:08:25.629Z,1004.69
2018-12-30T07:09:25.718Z,1004.68
2018-12-30T07:10:25.810Z,1004.75
2018-12-30T07:11:25.899Z,1004.70
2018-12-30T07:12:25.989Z,1004.76
2018-12-30T07:13:26.084Z,1004.80
2018-12-30T07:14:26.163Z,1004.77
2018-12-30T07:15:26.259Z,1004.75
2018-12-30T07:16:26.352Z,1004.83
2018-12-30T07:17:26.439Z,1004.80
2018-12-30T07:18:26.530Z,1004.84
2018-12-30T07:19:26.617Z,1004.86
2018-12-30T07:20:26.706Z,1004.87
2018-12-30T07:21:26.799Z,1004.92
2018-12-30T07:22:26.886Z,1004.85
2018-12-30T07:23:26.985Z,1004.94
2018-12-30T07:24:27.063Z,1004.94
2018-12-30T07:25:27.157Z,1004.97
2018-12-30T07:26:27.245Z,1004.96
2018-12-30T07:27:27.335Z,1004.96
2018-12-30T07:28:27.427Z,1005.02
2018-12-30T07:29:27.515Z,1005.02
2018-12-30T07:30:27.606Z,1004.97
2018-12-30T07:31:27.698Z,1005.02
2018-12-30T07:32:27.785Z,1005.06
2018-12-30T07:33:27.871Z,1005.03
2018-12-30T07:34:27.963Z,1005.01
2018-12-30T07:35:28.051Z,1005.05
2018-12-30T07:36:35.314Z,1005.09
2018-12-30T07:37:28.285Z,1005.11
2018-12-30T07:38:28.372Z,1005.10
2018-12-30T07:39:28.462Z,1005.10
2018-12-30T07:40:28.550Z,1005.16
2018-12-30T07:41:28.640Z,1005.16
2018-12-30T07:42:28.750Z,1005.20
2018-12-30T07:43:28.835Z,1005.20
2018-12-30T07:44:28.924Z,1005.26
2018-12-30T07:45:29.012Z,1005.25
2018-12-30T07:46:29.174Z,1005.25
2018-12-30T07:47:29.199Z,1005.28
2018-12-30T07:48:29.271Z,1005.27
2018-12-30T07:49:29.373Z,1005.32
2018-12-30T07:50:29.461Z,1005.38
2018-12-30T07:51:29.551Z,1005.40
2018-12-30T07:52:29.642Z,1005.44
2018-12-30T07:53:29.733Z,1005.43
2018-12-30T07:54:29.821Z,1005.45
2018-12-30T07:55:29.911Z,1005.42
2018-12-30T07:56:30.002Z,1005.45
2018-12-30T07:57:30.165Z,1005.43
2018-12-30T07:58:30.181Z,1005.41
2018-12-30T07:59:30.270Z,1005.46
2018-12-30T08:00:30.361Z,1005.51
2018-12-30T08:01:30.452Z,1005.53
2018-12-30T08:02:30.541Z,1005.55
2018-12-30T08:03:30.638Z,1005.57
2018-12-30T08:04:30.721Z,1005.64
2018-12-30T08:05:30.814Z,1005.59
2018-12-30T08:06:30.905Z,1005.61
2018-12-30T08:07:30.988Z,1005.56
2018-12-30T08:08:31.080Z,1005.60
2018-12-30T08:09:31.174Z,1005.60
2018-12-30T08:10:31.258Z,1005.66
2018-12-30T08:11:31.347Z,1005.67
2018-12-30T08:12:31.438Z,1005.71
2018-12-30T08:13:31.528Z,1005.63
2018-12-30T08:14:31.617Z,1005.61
2018-12-30T08:15:31.707Z,1005.62
2018-12-30T08:16:31.798Z,1005.68
2018-12-30T08:17:31.889Z,1005.65
2018-12-30T08:18:31.980Z,1005.65
2018-12-30T08:19:32.086Z,1005.60
2018-12-30T08:20:32.178Z,1005.69
2018-12-30T08:21:32.264Z,1005.69
2018-12-30T08:22:32.356Z,1005.77
2018-12-30T08:23:32.444Z,1005.71
2018-12-30T08:24:32.555Z,1005.73
2018-12-30T08:25:32.624Z,1005.76
2018-12-30T08:26:32.714Z,1005.77
2018-12-30T08:27:32.803Z,1005.78
2018-12-30T08:28:32.893Z,1005.77
2018-12-30T08:29:32.997Z,1005.73
2018-12-30T08:30:33.084Z,1005.77
2018-12-30T08:31:33.176Z,1005.76
2018-12-30T08:32:33.269Z,1005.79
2018-12-30T08:33:33.355Z,1005.80
2018-12-30T08:34:33.446Z,1005.78
2018-12-30T08:35:34.856Z,1005.76
2018-12-30T08:36:33.630Z,1005.76
2018-12-30T08:37:33.713Z,1005.73
2018-12-30T08:38:33.821Z,1005.76
2018-12-30T08:39:33.912Z,1005.75
2018-12-30T08:40:34.000Z,1005.79
2018-12-30T08:41:34.082Z,1005.80
2018-12-30T08:42:34.178Z,1005.76
2018-12-30T08:43:34.263Z,1005.77
2018-12-30T08:44:34.351Z,1005.79
2018-12-30T08:45:34.518Z,1005.81
2018-12-30T08:46:34.484Z,1005.79
2018-12-30T08:47:34.573Z,1005.77
2018-12-30T08:48:34.665Z,1005.76
2018-12-30T08:49:34.756Z,1005.84
2018-12-30T08:50:34.847Z,1005.81
2018-12-30T08:51:34.937Z,1005.83
2018-12-30T08:52:35.028Z,1005.87
2018-12-30T08:53:35.118Z,1005.89
2018-12-30T08:54:35.209Z,1005.93
2018-12-30T08:55:35.300Z,1005.93
2018-12-30T08:56:35.392Z,1005.90
2018-12-30T08:57:35.482Z,1005.89
2018-12-30T08:58:35.567Z,1005.93
2018-12-30T08:59:35.657Z,1006.00
2018-12-30T09:00:35.751Z,1006.01
2018-12-30T09:01:35.841Z,1006.04
2018-12-30T09:02:35.930Z,1006.11
2018-12-30T09:03:36.020Z,1006.10
2018-12-30T09:04:36.110Z,1006.12
2018-12-30T09:05:36.202Z,1006.13
2018-12-30T09:06:36.292Z,1006.15
2018-12-30T09:07:36.381Z,1006.18
2018-12-30T09:08:36.472Z,1006.12
2018-12-30T09:09:36.571Z,1006.14
2018-12-30T09:10:36.666Z,1006.21
2018-12-30T09:11:36.752Z,1006.27
2018-12-30T09:12:36.829Z,1006.23
2018-12-30T09:13:36.926Z,1006.32
2018-12-30T09:14:37.015Z,1006.29
2018-12-30T09:15:37.107Z,1006.30
2018-12-30T09:16:37.196Z,1006.25
2018-12-30T09:17:37.287Z,1006.33
2018-12-30T09:18:37.378Z,1006.28
2018-12-30T09:19:37.468Z,1006.34
2018-12-30T09:20:37.559Z,1006.31
2018-12-30T09:21:37.694Z,1006.29
2018-12-30T09:22:37.878Z,1006.41
2018-12-30T09:23:37.891Z,1006.37
2018-12-30T09:24:37.971Z,1006.40
2018-12-30T09:25:38.053Z,1006.36
2018-12-30T09:26:38.144Z,1006.38
2018-12-30T09:27:38.231Z,1006.44
2018-12-30T09:28:38.325Z,1006.41
2018-12-30T09:29:38.413Z,1006.44
2018-12-30T09:30:38.504Z,1006.45
2018-12-30T09:31:38.594Z,1006.44
2018-12-30T09:32:38.705Z,1006.45
2018-12-30T09:33:38.795Z,1006.46
2018-12-30T09:34:38.887Z,1006.49
2018-12-30T09:35:38.976Z,1006.54
2018-12-30T09:36:39.070Z,1006.55
2018-12-30T09:37:39.157Z,1006.57
2018-12-30T09:38:39.254Z,1006.52
2018-12-30T09:39:39.338Z,1006.53
2018-12-30T09:40:39.428Z,1006.52
2018-12-30T09:41:39.527Z,1006.59
2018-12-30T09:42:39.620Z,1006.60
2018-12-30T09:43:39.708Z,1006.62
2018-12-30T09:44:39.868Z,1006.64
2018-12-30T09:45:39.887Z,1006.65
2018-12-30T09:46:39.982Z,1006.68
2018-12-30T09:47:40.066Z,1006.67
2018-12-30T09:48:40.155Z,1006.73
2018-12-30T09:49:40.244Z,1006.74
2018-12-30T09:50:40.334Z,1006.73
2018-12-30T09:51:40.423Z,1006.71
2018-12-30T09:52:40.512Z,1006.70
2018-12-30T09:53:45.098Z,1006.70
2018-12-30T09:54:40.691Z,1006.75
2018-12-30T09:55:40.798Z,1006.77
2018-12-30T09:56:40.892Z,1006.71
2018-12-30T09:57:40.981Z,1006.77
2018-12-30T09:58:41.071Z,1006.77
2018-12-30T09:59:41.158Z,1006.71
2018-12-30T10:00:41.267Z,1006.75
2018-12-30T10:01:41.352Z,1006.72
2018-12-30T10:02:41.441Z,1006.72
2018-12-30T10:03:41.542Z,1006.75
2018-12-30T10:04:41.631Z,1006.74
2018-12-30T10:05:41.723Z,1006.70
2018-12-30T10:06:41.812Z,1006.74
2018-12-30T10:07:41.901Z,1006.78
2018-12-30T10:08:41.991Z,1006.79
2018-12-30T10:09:42.070Z,1006.81
2018-12-30T10:12:25.197Z,1006.77
2018-12-30T10:13:25.288Z,1006.74
2018-12-30T10:14:25.377Z,1006.72
2018-12-30T10:15:25.466Z,1006.71
2018-12-30T10:16:25.558Z,1006.71
2018-12-30T10:17:25.855Z,1006.66
2018-12-30T10:18:25.728Z,1006.69
2018-12-30T10:19:25.814Z,1006.69
2018-12-30T10:20:25.903Z,1006.77
2018-12-30T10:21:25.994Z,1006.73
2018-12-30T10:22:26.102Z,1006.77
2018-12-30T10:23:26.193Z,1006.75
2018-12-30T10:24:26.282Z,1006.80
2018-12-30T10:25:26.372Z,1006.82
2018-12-30T10:26:26.503Z,1006.84
2018-12-30T10:27:26.552Z,1006.85
2018-12-30T10:28:26.640Z,1006.83
2018-12-30T10:29:26.731Z,1006.84
2018-12-30T10:30:26.821Z,1006.79
2018-12-30T10:31:26.912Z,1006.79
2018-12-30T10:32:27.032Z,1006.82
2018-12-30T10:33:27.090Z,1006.75
2018-12-30T10:34:27.179Z,1006.76
2018-12-30T10:35:27.269Z,1006.76
2018-12-30T10:36:27.358Z,1006.86
2018-12-30T10:37:27.449Z,1006.85
2018-12-30T10:38:27.539Z,1006.86
2018-12-30T10:39:27.630Z,1006.86
2018-12-30T10:40:27.720Z,1006.85
2018-12-30T10:41:27.797Z,1006.88
2018-12-30T10:42:27.884Z,1006.85
2018-12-30T10:43:27.976Z,1006.86
2018-12-30T10:44:28.065Z,1006.80
2018-12-30T10:45:28.154Z,1006.83
2018-12-30T10:46:28.245Z,1006.84
2018-12-30T10:47:28.338Z,1006.89
2018-12-30T10:48:28.424Z,1006.91
2018-12-30T10:49:28.515Z,1006.92
2018-12-30T10:50:28.607Z,1006.93
2018-12-30T10:51:28.697Z,1006.99
2018-12-30T10:52:28.790Z,1007.02
2018-12-30T10:53:28.877Z,1007.02
2018-12-30T10:54:28.971Z,1007.03
2018-12-30T10:55:29.062Z,1006.98
2018-12-30T10:56:29.154Z,1006.95
2018-12-30T10:57:29.241Z,1006.98
2018-12-30T10:58:29.333Z,1006.96
2018-12-30T10:59:29.430Z,1006.95
2018-12-30T11:00:29.583Z,1006.94
2018-12-30T11:01:29.573Z,1006.94
2018-12-30T11:02:29.663Z,1006.95
2018-12-30T11:03:29.753Z,1006.93
2018-12-30T11:04:29.844Z,1006.92
2018-12-30T11:05:29.933Z,1006.90
2018-12-30T11:06:30.022Z,1006.89
2018-12-30T11:07:30.107Z,1006.87
2018-12-30T11:08:30.199Z,1006.89
2018-12-30T11:09:30.292Z,1006.95
2018-12-30T11:10:30.382Z,1007.00
2018-12-30T11:11:30.473Z,1006.94
2018-12-30T11:12:30.566Z,1006.90
2018-12-30T11:13:30.657Z,1006.88
2018-12-30T11:14:30.747Z,1006.86
2018-12-30T11:15:30.838Z,1006.78
2018-12-30T11:16:30.928Z,1006.81
2018-12-30T11:17:31.021Z,1006.77
2018-12-30T11:18:31.119Z,1006.71
2018-12-30T11:19:31.208Z,1006.69
2018-12-30T11:20:31.300Z,1006.66
2018-12-30T11:21:31.390Z,1006.64
2018-12-30T11:22:31.480Z,1006.67
2018-12-30T11:23:31.572Z,1006.64
2018-12-30T11:24:32.448Z,1006.56
2018-12-30T11:25:31.752Z,1006.58
2018-12-30T11:26:31.839Z,1006.48
2018-12-30T11:27:31.926Z,1006.52
2018-12-30T11:28:32.010Z,1006.54
2018-12-30T11:29:32.106Z,1006.52
2018-12-30T11:30:32.195Z,1006.55
2018-12-30T11:31:32.278Z,1006.49
2018-12-30T11:32:32.381Z,1006.53
2018-12-30T11:33:32.471Z,1006.51
2018-12-30T11:34:32.563Z,1006.44
2018-12-30T11:35:32.653Z,1006.36
2018-12-30T11:36:32.766Z,1006.35
2018-12-30T11:37:32.863Z,1006.25
2018-12-30T11:38:32.951Z,1006.28
2018-12-30T11:39:33.043Z,1006.22
2018-12-30T11:40:33.133Z,1006.18
2018-12-30T11:41:33.226Z,1006.13
2018-12-30T11:42:33.317Z,1006.15
2018-12-30T11:43:33.410Z,1006.08
2018-12-30T11:44:33.502Z,1006.10
2018-12-30T11:45:33.588Z,1006.15
2018-12-30T11:46:33.750Z,1006.07
2018-12-30T11:47:33.772Z,1006.03
2018-12-30T11:48:33.864Z,1006.07
2018-12-30T11:49:33.954Z,1006.04
2018-12-30T11:50:34.039Z,1006.02
2018-12-30T11:51:34.133Z,1006.03
2018-12-30T11:52:34.225Z,1006.08
2018-12-30T11:53:34.315Z,1006.09
2018-12-30T11:54:34.409Z,1006.12
2018-12-30T11:55:34.498Z,1006.15
2018-12-30T11:56:34.586Z,1006.11
2018-12-30T11:57:34.679Z,1006.05
2018-12-30T11:58:34.769Z,1006.07
2018-12-30T11:59:34.862Z,1006.08
2018-12-30T12:00:34.950Z,1006.07
2018-12-30T12:01:35.040Z,1005.99
2018-12-30T12:02:35.135Z,1006.00
2018-12-30T12:03:35.216Z,1005.97
2018-12-30T12:04:35.305Z,1006.06
2018-12-30T12:05:35.397Z,1006.01
2018-12-30T12:06:35.488Z,1006.05
2018-12-30T12:07:35.579Z,1006.05
2018-12-30T12:08:35.670Z,1006.11
2018-12-30T12:09:35.760Z,1006.11
2018-12-30T12:10:35.850Z,1006.11
2018-12-30T12:11:35.940Z,1006.08
2018-12-30T12:12:36.031Z,1006.09